createdAt,value
2019-04-10T00:01:08.891Z,45.23
2019-04-10T00:03:40.392Z,44.88
2019-04-10T00:06:09.737Z,47.13
2019-04-10T00:08:40.029Z,45.05
2019-04-10T00:11:10.314Z,47.13
2019-04-10T00:13:40.708Z,45.28
2019-04-10T00:16:11.850Z,45.85
2019-04-10T00:18:44.238Z,49.08
2019-04-10T00:21:15.515Z,47.93
2019-04-10T00:23:47.099Z,47.90
2019-04-10T00:26:18.464Z,46.45
2019-04-10T00:28:49.744Z,45.98
2019-04-10T00:31:20.101Z,45.88
2019-04-10T00:33:51.385Z,47.80
2019-04-10T00:36:22.180Z,44.85
2019-04-10T00:38:53.887Z,47.53
2019-04-10T00:41:24.333Z,47.38
2019-04-10T00:43:55.251Z,46.20
2019-04-10T00:46:26.306Z,47.10
2019-04-10T00:48:56.727Z,47.33
2019-04-10T00:51:27.589Z,45.58
2019-04-10T00:53:58.055Z,45.85
2019-04-10T00:56:28.452Z,44.03
2019-04-10T00:59:01.500Z,44.03
2019-04-10T01:01:31.942Z,43.08
2019-04-10T01:04:02.764Z,44.10
2019-04-10T01:06:33.271Z,42.15
2019-04-10T01:09:04.714Z,40.85
2019-04-10T01:11:35.249Z,41.58
2019-04-10T01:14:06.018Z,42.20
2019-04-10T01:16:36.371Z,39.15
2019-04-10T01:19:07.837Z,41.10
2019-04-10T01:21:38.769Z,36.48
2019-04-10T01:24:09.163Z,38.25
2019-04-10T01:26:39.568Z,35.25
2019-04-10T01:29:10.021Z,34.58
2019-04-10T01:31:41.375Z,35.98
2019-04-10T01:34:11.706Z,35.28
2019-04-10T01:36:41.992Z,33.63
2019-04-10T01:39:19.329Z,34.30
2019-04-10T01:41:50.146Z,33.02
2019-04-10T01:44:20.677Z,33.67
2019-04-10T01:46:51.061Z,32.15
2019-04-10T01:49:21.788Z,31.75
2019-04-10T01:51:52.215Z,32.63
2019-04-10T01:54:22.787Z,31.35
2019-04-10T01:56:53.101Z,32.85
2019-04-10T01:59:25.623Z,33.18
2019-04-10T02:02:02.986Z,30.32
2019-04-10T02:04:33.583Z,31.45
2019-04-10T02:07:03.912Z,31.40
2019-04-10T02:09:35.090Z,28.85
2019-04-10T02:12:06.200Z,27.85
2019-04-10T02:14:36.686Z,27.45
2019-04-10T02:17:07.084Z,27.32
2019-04-10T02:19:38.465Z,27.25
2019-04-10T02:22:09.230Z,27.37
2019-04-10T02:24:39.557Z,26.17
2019-04-10T02:27:09.939Z,26.90
2019-04-10T02:29:40.281Z,26.65
2019-04-10T02:32:12.038Z,25.08
2019-04-10T02:34:43.786Z,24.90
2019-04-10T02:37:15.252Z,23.62
2019-04-10T02:39:48.439Z,24.80
2019-04-10T02:42:18.691Z,23.02
2019-04-10T02:44:50.350Z,22.35
2019-04-10T02:47:22.906Z,23.32
2019-04-10T02:49:54.512Z,24.57
2019-04-10T02:52:25.123Z,22.48
2019-04-10T02:54:55.450Z,21.25
2019-04-10T02:57:27.525Z,23.42
2019-04-10T03:00:00.893Z,22.05
2019-04-10T03:02:31.153Z,21.48
2019-04-10T03:05:02.613Z,21.52
2019-04-10T03:07:33.801Z,22.32
2019-04-10T03:10:15.259Z,21.02
2019-04-10T03:12:36.542Z,21.37
2019-04-10T03:15:09.640Z,19.48
2019-04-10T03:17:40.085Z,22.05
2019-04-10T03:20:10.689Z,21.87
2019-04-10T03:22:41.078Z,22.98
2019-04-10T03:25:11.540Z,22.80
2019-04-10T03:27:42.733Z,21.80
2019-04-10T03:30:15.282Z,20.97
2019-04-10T03:33:19.100Z,22.40
2019-04-10T03:35:48.088Z,21.75
2019-04-10T03:40:48.727Z,21.60
2019-04-10T03:43:19.515Z,23.05
2019-04-10T03:45:49.865Z,21.17
2019-04-10T03:48:20.219Z,23.45
2019-04-10T03:50:50.655Z,22.02
2019-04-10T03:53:22.104Z,21.52
2019-04-10T03:55:53.646Z,22.17
2019-04-10T03:58:25.150Z,22.50
2019-04-10T04:00:55.743Z,22.70
2019-04-10T04:03:26.797Z,21.93
2019-04-10T04:05:57.509Z,22.02
2019-04-10T04:08:27.828Z,22.80
2019-04-10T04:10:59.118Z,21.82
2019-04-10T04:13:29.754Z,22.85
2019-04-10T04:16:00.299Z,23.15
2019-04-10T04:18:30.857Z,23.22
2019-04-10T04:21:01.516Z,24.10
2019-04-10T04:23:32.020Z,22.55
2019-04-10T04:26:03.065Z,21.33
2019-04-10T04:28:34.260Z,22.37
2019-04-10T04:31:05.304Z,20.95
2019-04-10T04:33:36.132Z,22.55
2019-04-10T04:36:06.439Z,22.25
2019-04-10T04:38:36.807Z,23.20
2019-04-10T04:41:07.206Z,22.70
2019-04-10T04:43:37.575Z,23.35
2019-04-10T04:46:08.036Z,22.75
2019-04-10T04:48:38.401Z,22.67
2019-04-10T04:51:09.009Z,24.25
2019-04-10T04:53:39.909Z,21.70
2019-04-10T04:56:11.422Z,21.40
2019-04-10T04:58:42.247Z,22.52
2019-04-10T05:01:12.865Z,21.80
2019-04-10T05:03:44.283Z,21.95
2019-04-10T05:06:14.797Z,21.75
2019-04-10T05:08:46.324Z,21.85
2019-04-10T05:11:16.769Z,22.85
2019-04-10T05:13:47.023Z,22.37
2019-04-10T05:16:18.548Z,21.95
2019-04-10T05:18:50.119Z,22.35
2019-04-10T05:21:21.325Z,21.57
2019-04-10T05:23:51.744Z,21.25
2019-04-10T05:26:27.821Z,22.02
2019-04-10T05:28:59.059Z,23.57
2019-04-10T05:31:29.876Z,22.73
2019-04-10T05:34:05.820Z,23.15
2019-04-10T05:37:07.533Z,22.48
2019-04-10T05:39:43.114Z,23.20
2019-04-10T05:42:10.628Z,20.88
2019-04-10T05:44:40.999Z,22.95
2019-04-10T05:47:11.837Z,21.85
2019-04-10T05:49:42.109Z,21.90
2019-04-10T05:52:12.688Z,22.60
2019-04-10T05:54:43.828Z,21.80
2019-04-10T05:57:14.450Z,23.60
2019-04-10T05:59:45.922Z,23.47
2019-04-10T06:02:16.297Z,21.73
2019-04-10T06:04:46.849Z,21.68
2019-04-10T06:07:17.133Z,21.42
2019-04-10T06:09:55.874Z,22.25
2019-04-10T06:12:20.319Z,20.97
2019-04-10T06:14:50.629Z,23.70
2019-04-10T06:17:20.936Z,24.20
2019-04-10T06:19:51.256Z,22.10
2019-04-10T06:22:22.565Z,23.60
2019-04-10T06:24:54.349Z,22.87
2019-04-10T06:27:24.956Z,24.25
2019-04-10T06:29:55.527Z,23.05
2019-04-10T06:32:25.942Z,22.05
2019-04-10T06:34:57.416Z,24.27
2019-04-10T06:37:28.333Z,22.55
2019-04-10T06:40:07.690Z,22.85
2019-04-10T06:42:35.101Z,23.85
2019-04-10T06:45:05.614Z,23.00
2019-04-10T06:47:36.175Z,23.73
2019-04-10T06:50:10.639Z,24.50
2019-04-10T06:52:41.034Z,25.90
2019-04-10T06:55:12.001Z,23.50
2019-04-10T06:57:49.180Z,25.30
2019-04-10T07:00:16.997Z,24.45
2019-04-10T07:05:17.660Z,24.82
2019-04-10T07:07:53.609Z,25.25
2019-04-10T07:10:27.282Z,24.63
2019-04-10T07:12:53.275Z,21.07
2019-04-10T07:15:24.163Z,23.07
2019-04-10T07:17:55.614Z,25.50
2019-04-10T07:20:26.201Z,23.90
2019-04-10T07:22:56.994Z,24.47
2019-04-10T07:25:28.314Z,24.23
2019-04-10T07:27:58.565Z,25.17
2019-04-10T07:30:29.864Z,23.38
2019-04-10T07:33:01.334Z,23.87
2019-04-10T07:35:33.893Z,23.85
2019-04-10T07:38:03.847Z,24.82
2019-04-10T07:40:36.539Z,23.10
2019-04-10T07:43:06.557Z,24.52
2019-04-10T07:45:37.071Z,23.55
2019-04-10T07:48:08.722Z,22.37
2019-04-10T07:50:39.503Z,23.70
2019-04-10T07:53:10.525Z,24.70
2019-04-10T07:55:40.793Z,23.55
2019-04-10T07:58:11.237Z,22.07
2019-04-10T08:00:42.850Z,24.23
2019-04-10T08:03:13.257Z,22.65
2019-04-10T08:05:44.031Z,21.93
2019-04-10T08:08:14.394Z,22.27
2019-04-10T08:10:45.104Z,23.00
2019-04-10T08:13:16.142Z,21.77
2019-04-10T08:15:47.190Z,21.10
2019-04-10T08:18:19.287Z,21.68
2019-04-10T08:20:50.882Z,20.55
2019-04-10T08:23:21.808Z,21.52
2019-04-10T08:25:53.654Z,22.02
2019-04-10T08:28:24.203Z,20.70
2019-04-10T08:30:54.732Z,21.02
2019-04-10T08:33:25.994Z,19.98
2019-04-10T08:35:56.872Z,21.60
2019-04-10T08:38:28.061Z,21.30
2019-04-10T08:40:58.679Z,20.80
2019-04-10T08:43:29.595Z,21.23
2019-04-10T08:46:01.970Z,21.70
2019-04-10T08:48:33.225Z,21.45
2019-04-10T08:51:03.495Z,21.48
2019-04-10T08:53:34.139Z,20.68
2019-04-10T08:56:04.845Z,19.45
2019-04-10T08:58:35.137Z,20.70
2019-04-10T09:01:05.641Z,21.52
2019-04-10T09:03:37.164Z,21.50
2019-04-10T09:06:07.634Z,21.40
2019-04-10T09:08:39.103Z,19.07
2019-04-10T09:11:09.542Z,19.25
2019-04-10T09:13:40.958Z,21.02
2019-04-10T09:16:12.164Z,19.27
2019-04-10T09:18:42.673Z,19.92
2019-04-10T09:21:13.349Z,20.70
2019-04-10T09:23:50.245Z,20.02
2019-04-10T09:26:16.337Z,17.82
2019-04-10T09:28:46.800Z,19.57
2019-04-10T09:31:17.729Z,18.02
2019-04-10T09:33:48.192Z,18.85
2019-04-10T09:36:19.729Z,19.48
2019-04-10T09:38:50.783Z,20.50
2019-04-10T09:41:21.630Z,20.10
2019-04-10T09:43:51.990Z,19.30
2019-04-10T09:46:22.563Z,19.62
2019-04-10T09:48:53.293Z,19.48
2019-04-10T09:51:23.699Z,18.17
2019-04-10T09:53:54.167Z,18.85
2019-04-10T09:56:25.504Z,19.60
2019-04-10T09:58:56.734Z,19.30
2019-04-10T10:01:27.554Z,19.77
2019-04-10T10:03:59.194Z,19.92
2019-04-10T10:06:33.419Z,17.98
2019-04-10T10:09:01.761Z,18.82
2019-04-10T10:11:32.443Z,19.57
2019-04-10T10:14:04.052Z,19.32
2019-04-10T10:16:35.779Z,18.17
2019-04-10T10:19:06.366Z,19.57
2019-04-10T10:21:36.684Z,19.73
2019-04-10T10:24:07.122Z,19.77
2019-04-10T10:26:37.489Z,18.32
2019-04-10T10:29:09.038Z,19.00
2019-04-10T10:31:40.232Z,17.52
2019-04-10T10:34:10.745Z,18.85
2019-04-10T10:36:46.066Z,18.20
2019-04-10T10:39:19.648Z,16.97
2019-04-10T10:41:51.114Z,17.75
2019-04-10T10:44:21.875Z,17.75
2019-04-10T10:46:52.694Z,16.00
2019-04-10T10:49:24.330Z,15.95
2019-04-10T10:51:55.194Z,17.95
2019-04-10T10:54:26.835Z,14.78
2019-04-10T10:56:58.490Z,16.90
2019-04-10T10:59:29.419Z,16.97
2019-04-10T11:02:00.246Z,17.48
2019-04-10T11:04:31.585Z,17.60
2019-04-10T11:07:02.694Z,17.55
2019-04-10T11:09:34.135Z,16.93
2019-04-10T11:12:06.749Z,15.05
2019-04-10T11:14:37.593Z,17.05
2019-04-10T11:17:07.891Z,15.70
2019-04-10T11:19:39.361Z,16.50
2019-04-10T11:22:12.690Z,17.42
2019-04-10T11:24:43.406Z,15.63
2019-04-10T11:27:15.979Z,14.93
2019-04-10T11:29:46.862Z,15.20
2019-04-10T11:32:17.608Z,15.90
2019-04-10T11:34:49.328Z,16.07
2019-04-10T11:39:51.970Z,15.05
2019-04-10T11:42:22.636Z,13.13
2019-04-10T11:44:54.467Z,16.20
2019-04-10T11:47:26.759Z,14.75
2019-04-10T11:49:58.861Z,16.75
2019-04-10T11:55:10.535Z,14.15
2019-04-10T11:57:34.953Z,16.57
2019-04-10T12:00:12.070Z,16.37
2019-04-10T12:02:42.424Z,15.28
2019-04-10T12:05:18.533Z,15.45
2019-04-10T12:12:48.540Z,16.45
2019-04-10T12:15:18.905Z,16.05
2019-04-10T12:17:49.747Z,16.37
2019-04-10T12:20:20.907Z,14.95
2019-04-10T12:22:52.371Z,14.73
2019-04-10T12:25:22.958Z,16.00
2019-04-10T12:27:53.563Z,16.15
2019-04-10T12:30:24.051Z,14.68
2019-04-10T12:32:54.815Z,15.63
2019-04-10T12:35:25.281Z,16.23
2019-04-10T12:38:02.190Z,13.72
2019-04-10T12:40:28.704Z,14.45
2019-04-10T12:42:59.038Z,17.32
2019-04-10T12:45:30.497Z,16.42
2019-04-10T12:48:02.058Z,15.15
2019-04-10T12:50:32.825Z,14.40
2019-04-10T12:53:03.304Z,15.88
2019-04-10T12:55:34.636Z,14.13
2019-04-10T12:58:10.869Z,15.18
2019-04-10T13:00:38.445Z,14.10
2019-04-10T13:03:09.255Z,15.03
2019-04-10T13:05:39.597Z,15.58
2019-04-10T13:08:17.087Z,15.60
2019-04-10T13:10:43.949Z,16.05
2019-04-10T13:13:15.965Z,14.95
2019-04-10T13:15:47.696Z,15.50
2019-04-10T13:18:18.530Z,14.55
2019-04-10T13:20:48.954Z,13.83
2019-04-10T13:23:20.452Z,16.15
2019-04-10T13:25:58.093Z,14.38
2019-04-10T13:28:23.401Z,15.60
2019-04-10T13:30:56.568Z,14.93
2019-04-10T13:33:26.847Z,14.75
2019-04-10T13:35:57.621Z,16.10
2019-04-10T13:38:32.394Z,15.75
2019-04-10T13:41:01.920Z,15.40
2019-04-10T13:43:32.381Z,15.70
2019-04-10T13:46:03.107Z,15.65
2019-04-10T13:48:33.497Z,15.50
2019-04-10T13:51:03.752Z,15.70
2019-04-10T13:53:34.277Z,15.45
2019-04-10T13:56:06.578Z,16.02
2019-04-10T13:58:37.171Z,15.70
2019-04-10T14:01:11.272Z,17.52
2019-04-10T14:03:43.788Z,16.02
2019-04-10T14:06:13.751Z,15.75
2019-04-10T14:09:04.462Z,16.00
2019-04-10T14:11:17.402Z,16.62
2019-04-10T14:13:48.384Z,14.53
2019-04-10T14:16:18.727Z,17.25
2019-04-10T14:18:49.095Z,15.00
2019-04-10T14:21:20.661Z,16.30
2019-04-10T14:23:51.519Z,15.35
2019-04-10T14:26:41.922Z,16.00
2019-04-10T14:31:46.705Z,15.75
2019-04-10T14:34:18.822Z,17.40
2019-04-10T14:36:49.578Z,16.15
2019-04-10T14:39:21.474Z,17.65
2019-04-10T14:41:53.842Z,16.50
2019-04-10T14:44:24.408Z,16.93
2019-04-10T14:46:55.131Z,17.42
2019-04-10T14:49:25.689Z,16.77
2019-04-10T14:51:56.800Z,16.30
2019-04-10T14:54:27.991Z,15.65
2019-04-10T14:56:58.806Z,15.63
2019-04-10T14:59:29.385Z,16.02
2019-04-10T15:02:00.063Z,15.90
2019-04-10T15:04:31.231Z,16.75
2019-04-10T15:07:01.850Z,15.98
2019-04-10T15:09:32.275Z,15.90
2019-04-10T15:12:04.964Z,16.42
2019-04-10T15:14:35.487Z,14.85
2019-04-10T15:17:07.968Z,17.10
2019-04-10T15:19:38.584Z,16.17
2019-04-10T15:22:09.510Z,14.75
2019-04-10T15:24:40.175Z,15.98
2019-04-10T15:27:11.310Z,15.85
2019-04-10T15:29:42.980Z,16.07
2019-04-10T15:32:14.575Z,15.20
2019-04-10T15:34:46.042Z,15.60
2019-04-10T15:37:17.183Z,13.75
2019-04-10T15:39:48.442Z,13.32
2019-04-10T15:42:19.749Z,14.35
2019-04-10T15:44:50.331Z,14.93
2019-04-10T15:47:22.923Z,14.93
2019-04-10T15:49:53.544Z,14.33
2019-04-10T15:52:23.951Z,13.72
2019-04-10T15:54:55.344Z,13.70
2019-04-10T15:57:26.940Z,13.53
2019-04-10T15:59:57.448Z,14.55
2019-04-10T16:02:27.974Z,13.75
2019-04-10T16:04:59.374Z,13.75
2019-04-10T16:07:30.874Z,14.40
2019-04-10T16:10:19.003Z,14.25
2019-04-10T16:12:49.861Z,13.88
2019-04-10T16:15:20.257Z,14.95
2019-04-10T16:17:58.829Z,14.15
2019-04-10T16:20:31.570Z,15.98
2019-04-10T16:23:20.304Z,13.80
2019-04-10T16:25:52.562Z,14.85
2019-04-10T16:28:23.581Z,13.98
2019-04-10T16:30:55.115Z,16.73
2019-04-10T16:33:27.394Z,15.13
2019-04-10T16:35:58.920Z,14.47
2019-04-10T16:38:29.536Z,16.07
2019-04-10T16:41:00.481Z,14.87
2019-04-10T16:43:30.907Z,16.35
2019-04-10T16:46:01.222Z,14.50
2019-04-10T16:48:31.937Z,16.35
2019-04-10T16:51:02.291Z,15.95
2019-04-10T16:53:33.916Z,17.23
2019-04-10T16:56:05.274Z,16.82
2019-04-10T16:58:36.689Z,17.27
2019-04-10T17:01:08.357Z,18.40
2019-04-10T17:03:40.082Z,16.07
2019-04-10T17:06:10.511Z,16.32
2019-04-10T17:08:40.815Z,15.40
2019-04-10T17:11:12.530Z,15.30
2019-04-10T17:13:43.501Z,15.23
2019-04-10T17:16:15.676Z,16.42
2019-04-10T17:18:47.493Z,17.25
2019-04-10T17:21:18.465Z,15.95
2019-04-10T17:23:51.137Z,17.05
2019-04-10T17:26:22.527Z,14.35
2019-04-10T17:28:52.987Z,15.85
2019-04-10T17:31:24.635Z,16.87
2019-04-10T17:33:55.008Z,15.80
2019-04-10T17:36:25.686Z,16.45
2019-04-10T17:38:56.024Z,14.65
2019-04-10T17:41:26.349Z,15.53
2019-04-10T17:43:58.107Z,13.48
2019-04-10T17:46:29.142Z,16.97
2019-04-10T17:48:59.365Z,15.80
2019-04-10T17:51:30.314Z,15.23
2019-04-10T17:54:02.130Z,15.15
2019-04-10T17:56:32.646Z,14.98
2019-04-10T17:59:03.047Z,16.30
2019-04-10T18:01:34.756Z,15.23
2019-04-10T18:04:05.680Z,14.35
2019-04-10T18:06:36.295Z,14.83
2019-04-10T18:09:09.802Z,15.85
2019-04-10T18:11:40.175Z,15.13
2019-04-10T18:14:11.180Z,15.65
2019-04-10T18:16:42.225Z,14.47
2019-04-10T18:19:15.350Z,14.58
2019-04-10T18:21:45.928Z,14.85
2019-04-10T18:24:16.240Z,16.15
2019-04-10T18:26:49.555Z,14.30
2019-04-10T18:29:19.117Z,15.58
2019-04-10T18:31:50.965Z,15.18
2019-04-10T18:34:21.808Z,15.95
2019-04-10T18:36:52.464Z,14.85
2019-04-10T18:39:24.102Z,16.52
2019-04-10T18:41:56.087Z,15.40
2019-04-10T18:44:26.917Z,16.07
2019-04-10T18:46:57.426Z,15.55
2019-04-10T18:49:35.772Z,15.60
2019-04-10T18:52:07.472Z,17.45
2019-04-10T18:54:37.928Z,15.72
2019-04-10T18:57:09.341Z,15.35
2019-04-10T19:00:18.647Z,15.55
2019-04-10T19:03:13.627Z,16.27
2019-04-10T19:05:47.757Z,16.62
2019-04-10T19:08:18.087Z,16.00
2019-04-10T19:10:48.532Z,15.18
2019-04-10T19:13:18.927Z,16.40
2019-04-10T19:15:49.320Z,17.15
2019-04-10T19:18:19.731Z,15.48
2019-04-10T19:20:51.436Z,16.75
2019-04-10T19:23:22.728Z,15.85
2019-04-10T19:25:54.708Z,15.23
2019-04-10T19:28:32.285Z,16.17
2019-04-10T19:31:11.885Z,15.08
2019-04-10T19:33:37.687Z,15.00
2019-04-10T19:36:08.022Z,16.12
2019-04-10T19:38:38.393Z,14.93
2019-04-10T19:41:23.342Z,14.35
2019-04-10T19:43:43.274Z,14.05
2019-04-10T19:46:13.965Z,13.78
2019-04-10T19:48:47.252Z,15.80
2019-04-10T19:51:16.949Z,14.55
2019-04-10T19:54:17.806Z,14.78
2019-04-10T19:56:48.881Z,15.70
2019-04-10T19:59:19.333Z,15.23
2019-04-10T20:01:50.667Z,14.70
2019-04-10T20:04:21.213Z,14.55
2019-04-10T20:06:52.349Z,15.20
2019-04-10T20:09:24.191Z,15.40
2019-04-10T20:11:57.191Z,13.68
2019-04-10T20:14:28.367Z,13.60
2019-04-10T20:16:59.732Z,14.90
2019-04-10T20:19:30.737Z,13.68
2019-04-10T20:22:01.117Z,13.85
2019-04-10T20:24:32.610Z,15.20
2019-04-10T20:27:03.535Z,14.93
2019-04-10T20:29:35.046Z,15.18
2019-04-10T20:32:05.904Z,15.32
2019-04-10T20:34:37.777Z,13.65
2019-04-10T20:37:09.871Z,13.55
2019-04-10T20:39:41.219Z,14.73
2019-04-10T20:42:11.892Z,14.43
2019-04-10T20:44:43.038Z,14.30
2019-04-10T20:47:13.383Z,14.85
2019-04-10T20:49:44.698Z,14.87
2019-04-10T20:52:15.108Z,14.68
2019-04-10T20:54:45.434Z,14.75
2019-04-10T20:57:15.858Z,14.35
2019-04-10T20:59:46.133Z,15.00
2019-04-10T21:02:16.506Z,14.60
2019-04-10T21:04:54.538Z,15.18
2019-04-10T21:07:19.860Z,14.63
2019-04-10T21:09:50.324Z,16.02
2019-04-10T21:12:21.426Z,16.00
2019-04-10T21:14:52.559Z,16.55
2019-04-10T21:17:23.022Z,15.43
2019-04-10T21:19:53.815Z,15.75
2019-04-10T21:22:24.604Z,15.85
2019-04-10T21:24:56.194Z,16.45
2019-04-10T21:27:26.634Z,16.25
2019-04-10T21:30:18.637Z,16.25
2019-04-10T21:32:58.313Z,16.23
2019-04-10T21:35:32.909Z,16.77
2019-04-10T21:38:04.694Z,17.23
2019-04-10T21:40:35.354Z,17.62
2019-04-10T21:43:06.112Z,17.32
2019-04-10T21:45:37.034Z,17.05
2019-04-10T21:48:08.500Z,16.93
2019-04-10T21:50:39.815Z,17.40
2019-04-10T21:53:10.231Z,18.07
2019-04-10T21:55:41.691Z,18.70
2019-04-10T21:58:13.103Z,18.35
2019-04-10T22:01:13.431Z,18.23
2019-04-10T22:03:44.196Z,17.23
2019-04-10T22:06:45.555Z,18.87
2019-04-10T22:09:34.977Z,19.75
2019-04-10T22:12:24.036Z,17.87
2019-04-10T22:14:45.981Z,19.40
2019-04-10T22:17:17.128Z,19.20
2019-04-10T22:19:47.505Z,18.67
2019-04-10T22:22:18.246Z,19.80
2019-04-10T22:24:48.985Z,18.98
2019-04-10T22:27:19.563Z,19.27
2019-04-10T22:32:25.464Z,19.77
2019-04-10T22:34:56.927Z,18.92
2019-04-10T22:37:27.902Z,20.37
2019-04-10T22:39:58.736Z,18.48
2019-04-10T22:42:40.164Z,20.25
2019-04-10T22:45:02.600Z,19.07
2019-04-10T22:47:33.958Z,20.37
2019-04-10T22:50:04.971Z,19.67
2019-04-10T22:52:35.353Z,21.10
2019-04-10T22:55:07.117Z,19.05
2019-04-10T22:57:39.734Z,20.88
2019-04-10T23:00:12.462Z,20.45
2019-04-10T23:02:42.837Z,19.90
2019-04-10T23:05:16.240Z,20.37
2019-04-10T23:07:47.213Z,20.10
2019-04-10T23:10:19.136Z,19.92
2019-04-10T23:12:58.114Z,20.32
2019-04-10T23:15:21.707Z,20.25
2019-04-10T23:17:52.852Z,20.20
2019-04-10T23:20:23.781Z,20.02
2019-04-10T23:22:54.795Z,20.80
2019-04-10T23:25:25.242Z,19.95
2019-04-10T23:27:56.413Z,20.55
2019-04-10T23:30:26.998Z,19.10
2019-04-10T23:32:57.663Z,19.92
2019-04-10T23:35:27.930Z,17.98
2019-04-10T23:37:59.505Z,20.72
2019-04-10T23:40:29.862Z,20.30
2019-04-10T23:43:07.711Z,18.60
2019-04-10T23:45:33.508Z,18.90
2019-04-10T23:48:04.553Z,19.27
2019-04-10T23:50:36.434Z,19.05
2019-04-10T23:53:06.958Z,20.25
2019-04-10T23:55:37.853Z,19.62
2019-04-10T23:58:09.399Z,18.77
